Time;durP1;ratioP1;P1;durP2;ratioP2;P2;SDS_P1;SDS_P2;PMS_P1;PMS_P2;Temp;Humidity;BMP_temperature;BMP_pressure;BME280_temperature;BME280_humidity;BME280_pressure;Samples;Min_cycle;Max_cycle;Signal;HPM_P1;HPM_P2
2023/08/21 00:00:01;;;;;;;10.13;2.33;;;;;20.10;101783.00;;;;5028338;28;20769;-68
2023/08/21 00:02:47;;;;;;;5.37;2.00;;;;;20.10;101790.00;;;;5024855;28;20231;-68
2023/08/21 00:05:35;;;;;;;5.23;2.10;;;;;20.10;101788.00;;;;5024093;28;20240;-68
2023/08/21 00:08:22;;;;;;;4.90;2.10;;;;;20.10;101772.00;;;;5032616;28;20403;-67
2023/08/21 00:11:08;;;;;;;4.67;2.00;;;;;20.10;101766.00;;;;5021990;28;20499;-68
2023/08/21 00:13:55;;;;;;;4.53;2.20;;;;;20.10;101769.00;;;;5018608;28;20253;-68
2023/08/21 00:16:42;;;;;;;4.20;1.90;;;;;20.10;101783.00;;;;5015690;28;20247;-69
2023/08/21 00:19:28;;;;;;;3.73;2.00;;;;;20.00;101784.00;;;;5016960;28;20367;-68
2023/08/21 00:22:16;;;;;;;4.50;2.07;;;;;20.00;101783.00;;;;5029250;28;20353;-68
2023/08/21 00:25:03;;;;;;;2.97;1.83;;;;;20.00;101785.00;;;;5019634;28;20768;-68
2023/08/21 00:27:49;;;;;;;6.60;1.90;;;;;20.00;101779.00;;;;5009648;28;20272;-68
2023/08/21 00:30:35;;;;;;;4.60;1.80;;;;;19.90;101771.00;;;;5033889;28;20321;-68
2023/08/21 00:33:22;;;;;;;3.20;1.83;;;;;19.80;101767.00;;;;5014878;28;20719;-67
2023/08/21 00:36:09;;;;;;;1.67;1.57;;;;;19.70;101766.00;;;;5021900;28;20238;-67
2023/08/21 00:38:57;;;;;;;6.17;2.10;;;;;19.70;101768.00;;;;5023793;28;20391;-68
2023/08/21 00:41:43;;;;;;;3.37;1.70;;;;;19.70;101764.00;;;;5022593;28;20231;-69
2023/08/21 00:44:29;;;;;;;5.33;2.17;;;;;19.70;101773.00;;;;5015145;28;20372;-68
2023/08/21 00:47:15;;;;;;;2.60;1.90;;;;;19.70;101781.00;;;;5039436;28;20236;-67
2023/08/21 00:50:02;;;;;;;4.83;2.00;;;;;19.60;101776.00;;;;5036451;28;20248;-68
2023/08/21 00:52:49;;;;;;;6.47;1.93;;;;;19.70;101783.00;;;;5017717;28;20246;-69
2023/08/21 00:55:38;;;;;;;6.53;1.87;;;;;19.70;101790.00;;;;5023739;28;20650;-68
2023/08/21 00:58:24;;;;;;;4.33;2.13;;;;;19.80;101790.00;;;;5022809;28;20240;-69
2023/08/21 01:01:10;;;;;;;4.27;2.10;;;;;19.80;101773.00;;;;5020963;28;20242;-69
2023/08/21 01:03:57;;;;;;;5.80;1.90;;;;;19.70;101772.00;;;;5021053;28;20226;-67
2023/08/21 01:06:44;;;;;;;5.13;1.70;;;;;19.70;101771.00;;;;5028757;28;20288;-67
2023/08/21 01:09:35;;;;;;;6.10;2.00;;;;;19.70;101765.00;;;;5028357;28;20265;-67
2023/08/21 01:12:29;;;;;;;5.03;1.93;;;;;19.60;101770.00;;;;5027905;28;20234;-68
2023/08/21 01:15:15;;;;;;;2.97;1.50;;;;;19.50;101766.00;;;;5025003;28;20733;-69
2023/08/21 01:18:02;;;;;;;3.77;1.90;;;;;19.40;101754.00;;;;5020655;28;20235;-67
2023/08/21 01:20:49;;;;;;;3.13;1.60;;;;;19.30;101751.00;;;;5025827;28;20847;-68
2023/08/21 01:23:38;;;;;;;2.03;1.83;;;;;19.20;101752.00;;;;5027913;28;20231;-67
2023/08/21 01:26:24;;;;;;;3.53;1.97;;;;;19.20;101766.00;;;;5026968;28;20255;-67
2023/08/21 01:29:11;;;;;;;3.03;2.13;;;;;19.20;101760.00;;;;5026020;28;20249;-68
2023/08/21 01:32:06;;;;;;;2.83;1.90;;;;;19.10;101760.00;;;;5026570;28;20304;-68
2023/08/21 01:34:55;;;;;;;3.03;2.10;;;;;19.10;101763.00;;;;5023081;28;20226;-67
2023/08/21 01:37:43;;;;;;;6.00;1.83;;;;;19.10;101756.00;;;;5045751;28;20368;-67
2023/08/21 01:40:30;;;;;;;8.33;2.00;;;;;19.10;101753.00;;;;5035194;28;20226;-67
2023/08/21 01:43:18;;;;;;;5.27;2.00;;;;;19.10;101755.00;;;;5022321;28;20250;-67
2023/08/21 01:46:05;;;;;;;2.27;1.73;;;;;19.10;101754.00;;;;5020771;28;20609;-67
2023/08/21 01:48:51;;;;;;;2.90;2.10;;;;;19.10;101751.00;;;;5026706;28;20587;-68
2023/08/21 01:51:37;;;;;;;4.63;1.90;;;;;19.10;101760.00;;;;5017098;28;20246;-67
2023/08/21 01:54:24;;;;;;;2.53;1.90;;;;;19.00;101771.00;;;;5033671;28;20279;-66
2023/08/21 01:57:12;;;;;;;4.50;1.90;;;;;19.00;101765.00;;;;5032236;28;20220;-68
2023/08/21 01:59:58;;;;;;;2.87;1.90;;;;;19.10;101766.00;;;;5021452;28;20217;-68
2023/08/21 02:02:45;;;;;;;4.93;2.20;;;;;19.10;101773.00;;;;5023711;28;20596;-69
2023/08/21 02:05:31;;;;;;;5.77;2.10;;;;;19.10;101769.00;;;;5024996;28;20233;-67
2023/08/21 02:08:18;;;;;;;7.97;2.23;;;;;19.10;101760.00;;;;5026413;28;20240;-67
2023/08/21 02:11:05;;;;;;;4.13;1.83;;;;;19.10;101756.00;;;;5019638;28;20464;-67
2023/08/21 02:13:53;;;;;;;3.07;2.00;;;;;19.00;101761.00;;;;5027654;28;20238;-68
2023/08/21 02:16:39;;;;;;;3.87;2.00;;;;;19.10;101759.00;;;;5023294;28;20263;-68
2023/08/21 02:19:26;;;;;;;3.13;1.70;;;;;19.10;101762.00;;;;5024026;28;20241;-67
2023/08/21 02:22:13;;;;;;;5.00;2.00;;;;;19.10;101769.00;;;;5022939;28;20324;-68
2023/08/21 02:24:59;;;;;;;3.17;2.03;;;;;19.20;101763.00;;;;5027357;28;20307;-70
2023/08/21 02:27:46;;;;;;;5.50;2.10;;;;;19.20;101755.00;;;;5019262;28;20235;-68
2023/08/21 02:30:33;;;;;;;4.63;2.00;;;;;19.20;101751.00;;;;5027078;28;20889;-68
2023/08/21 02:33:20;;;;;;;4.87;1.50;;;;;19.20;101753.00;;;;5040737;28;20699;-69
2023/08/21 02:36:08;;;;;;;5.97;2.10;;;;;19.10;101756.00;;;;5026979;28;20790;-68
2023/08/21 02:38:56;;;;;;;3.70;1.80;;;;;19.20;101775.00;;;;5021679;28;20304;-68
2023/08/21 02:41:42;;;;;;;5.73;1.83;;;;;19.20;101774.00;;;;5021793;28;20270;-66
2023/08/21 02:44:28;;;;;;;3.10;1.83;;;;;19.20;101769.00;;;;5027775;28;20253;-65
2023/08/21 02:47:17;;;;;;;5.50;2.03;;;;;19.20;101756.00;;;;5021590;28;20286;-67
2023/08/21 02:50:04;;;;;;;4.93;1.90;;;;;19.20;101772.00;;;;5027299;28;20229;-67
2023/08/21 02:52:51;;;;;;;4.57;1.90;;;;;19.10;101763.00;;;;5022075;28;20233;-67
2023/08/21 02:55:37;;;;;;;2.50;1.77;;;;;19.10;101761.00;;;;5022740;28;20241;-68
2023/08/21 02:58:24;;;;;;;3.80;1.90;;;;;19.10;101757.00;;;;5024822;28;20238;-68
2023/08/21 03:01:10;;;;;;;4.50;2.07;;;;;19.00;101761.00;;;;5022657;28;20280;-68
2023/08/21 03:03:58;;;;;;;3.17;1.87;;;;;19.00;101760.00;;;;5026627;28;20228;-68
2023/08/21 03:06:45;;;;;;;2.90;1.90;;;;;19.00;101754.00;;;;5028410;28;20228;-66
2023/08/21 03:09:31;;;;;;;3.80;2.00;;;;;19.00;101756.00;;;;5020684;28;20236;-68
2023/08/21 03:12:18;;;;;;;4.10;1.93;;;;;19.00;101752.00;;;;5022048;28;20291;-68
2023/08/21 03:15:05;;;;;;;4.43;1.83;;;;;19.00;101757.00;;;;5023475;28;20276;-68
2023/08/21 03:17:52;;;;;;;4.43;2.10;;;;;19.00;101759.00;;;;5019829;28;20922;-68
2023/08/21 03:20:45;;;;;;;4.00;1.80;;;;;19.00;101763.00;;;;5029579;28;20319;-70
2023/08/21 03:23:31;;;;;;;3.20;1.90;;;;;19.00;101760.00;;;;5025433;28;20254;-68
2023/08/21 03:26:17;;;;;;;6.03;2.10;;;;;19.00;101752.00;;;;5015740;28;20226;-67
2023/08/21 03:29:04;;;;;;;6.00;2.10;;;;;19.00;101741.00;;;;5026824;28;20266;-68
2023/08/21 03:31:51;;;;;;;2.60;1.93;;;;;19.00;101744.00;;;;5027716;28;20282;-68
2023/08/21 03:34:37;;;;;;;7.23;2.23;;;;;19.00;101744.00;;;;5036614;28;20739;-68
2023/08/21 03:37:25;;;;;;;4.00;1.97;;;;;18.90;101746.00;;;;5021952;28;20238;-67
2023/08/21 03:40:12;;;;;;;4.60;2.17;;;;;18.90;101737.00;;;;5026173;28;20238;-69
2023/08/21 03:42:58;;;;;;;5.27;2.00;;;;;18.90;101738.00;;;;5025064;28;20234;-65
2023/08/21 03:45:44;;;;;;;6.90;1.90;;;;;18.90;101736.00;;;;5023902;28;20241;-68
2023/08/21 03:48:31;;;;;;;4.87;2.17;;;;;18.90;101740.00;;;;5025768;28;20764;-69
2023/08/21 03:51:18;;;;;;;4.40;2.00;;;;;18.90;101739.00;;;;5025198;28;20245;-68
2023/08/21 03:54:06;;;;;;;3.57;1.87;;;;;18.80;101740.00;;;;5018151;28;20767;-67
2023/08/21 03:56:52;;;;;;;4.57;2.17;;;;;18.80;101740.00;;;;5030442;28;20225;-67
2023/08/21 03:59:38;;;;;;;5.50;2.10;;;;;18.80;101746.00;;;;5025376;28;20240;-71
2023/08/21 04:02:25;;;;;;;6.67;2.00;;;;;18.80;101743.00;;;;5021355;28;20241;-67
2023/08/21 04:05:12;;;;;;;3.77;2.00;;;;;18.80;101741.00;;;;5017940;28;20613;-69
2023/08/21 04:07:58;;;;;;;6.37;2.10;;;;;18.80;101753.00;;;;5020827;28;20226;-69
2023/08/21 04:10:46;;;;;;;4.40;2.20;;;;;18.90;101753.00;;;;5018460;28;20230;-67
2023/08/21 04:13:32;;;;;;;3.67;2.13;;;;;18.80;101754.00;;;;5028585;28;20311;-67
2023/08/21 04:16:21;;;;;;;4.33;2.13;;;;;18.90;101763.00;;;;5026897;28;20350;-65
2023/08/21 04:19:07;;;;;;;6.43;2.17;;;;;18.90;101751.00;;;;5018175;28;20253;-68
2023/08/21 04:21:54;;;;;;;4.13;2.17;;;;;18.90;101746.00;;;;5029420;28;20335;-65
2023/08/21 04:24:41;;;;;;;5.23;2.03;;;;;18.90;101737.00;;;;5033260;28;20735;-68
2023/08/21 04:27:29;;;;;;;2.63;1.80;;;;;18.90;101742.00;;;;5028801;28;20233;-67
2023/08/21 04:30:15;;;;;;;4.00;2.10;;;;;18.80;101743.00;;;;5011687;28;20357;-67
2023/08/21 04:33:02;;;;;;;3.20;1.93;;;;;18.80;101748.00;;;;5024393;28;20234;-68
2023/08/21 04:35:49;;;;;;;4.60;2.27;;;;;18.70;101737.00;;;;5022086;28;20222;-66
2023/08/21 04:38:35;;;;;;;5.77;2.00;;;;;18.60;101741.00;;;;5014178;28;20758;-69
2023/08/21 04:41:22;;;;;;;2.50;2.20;;;;;18.60;101744.00;;;;5024173;28;20308;-67
2023/08/21 04:44:09;;;;;;;3.93;2.10;;;;;18.60;101744.00;;;;5001130;28;20250;-67
2023/08/21 04:46:56;;;;;;;4.70;2.20;;;;;18.60;101751.00;;;;5041367;28;20228;-67
2023/08/21 04:49:42;;;;;;;8.17;2.50;;;;;18.60;101753.00;;;;5043995;28;20237;-66
2023/08/21 04:52:29;;;;;;;6.10;2.40;;;;;18.60;101746.00;;;;5034073;28;20364;-68
2023/08/21 04:55:16;;;;;;;4.63;2.23;;;;;18.60;101751.00;;;;5026781;28;20368;-68
2023/08/21 04:58:02;;;;;;;5.93;2.10;;;;;18.60;101754.00;;;;5015916;28;20237;-69
2023/08/21 05:00:49;;;;;;;4.00;2.30;;;;;18.70;101761.00;;;;5022861;28;20233;-67
2023/08/21 05:03:36;;;;;;;4.43;2.23;;;;;18.80;101771.00;;;;5026595;28;20240;-67
2023/08/21 05:06:23;;;;;;;11.23;2.37;;;;;18.90;101772.00;;;;5029640;28;20229;-68
2023/08/21 05:09:10;;;;;;;8.30;2.47;;;;;18.90;101772.00;;;;5022989;28;20292;-68
2023/08/21 05:11:57;;;;;;;4.33;2.37;;;;;18.80;101759.00;;;;5029498;28;20221;-70
2023/08/21 05:14:43;;;;;;;6.37;2.27;;;;;18.80;101771.00;;;;5019076;28;20291;-67
2023/08/21 05:17:31;;;;;;;5.70;2.10;;;;;18.80;101767.00;;;;5019796;28;20225;-68
2023/08/21 05:20:18;;;;;;;5.50;2.27;;;;;18.90;101769.00;;;;5018182;28;20827;-68
2023/08/21 05:23:04;;;;;;;2.63;2.00;;;;;18.90;101761.00;;;;5025908;28;20240;-68
2023/08/21 05:25:50;;;;;;;4.30;2.20;;;;;18.80;101765.00;;;;5030174;28;20229;-69
2023/08/21 05:28:37;;;;;;;3.27;2.30;;;;;18.70;101762.00;;;;5031855;28;20233;-68
2023/08/21 05:31:24;;;;;;;4.80;2.10;;;;;18.70;101764.00;;;;5027265;28;20245;-71
2023/08/21 05:34:12;;;;;;;4.13;2.37;;;;;18.70;101766.00;;;;5017841;28;20225;-69
2023/08/21 05:36:58;;;;;;;5.27;2.20;;;;;18.70;101771.00;;;;5024625;28;20303;-67
2023/08/21 05:39:44;;;;;;;5.07;2.10;;;;;18.80;101778.00;;;;5017540;28;20292;-67
2023/08/21 05:42:30;;;;;;;3.67;2.10;;;;;18.80;101773.00;;;;5024111;28;20352;-68
2023/08/21 05:45:17;;;;;;;3.90;2.20;;;;;18.80;101771.00;;;;5030324;28;20225;-68
2023/08/21 05:48:04;;;;;;;8.43;2.30;;;;;18.80;101772.00;;;;5037844;28;20275;-67
2023/08/21 05:50:53;;;;;;;7.37;2.53;;;;;18.80;101782.00;;;;5041054;28;20260;-67
2023/08/21 05:53:40;;;;;;;7.17;2.20;;;;;18.90;101784.00;;;;5010476;28;20592;-65
2023/08/21 05:56:26;;;;;;;6.07;2.57;;;;;18.90;101777.00;;;;5024225;28;20291;-67
2023/08/21 05:59:12;;;;;;;5.47;2.37;;;;;18.90;101791.00;;;;5021606;28;20314;-69
2023/08/21 06:01:59;;;;;;;4.27;2.23;;;;;19.00;101781.00;;;;5019774;28;20231;-67
2023/08/21 06:04:46;;;;;;;5.57;2.40;;;;;19.10;101785.00;;;;5022778;28;20241;-70
2023/08/21 06:07:34;;;;;;;3.70;1.87;;;;;19.20;101788.00;;;;5018885;28;20626;-72
2023/08/21 06:10:21;;;;;;;4.47;2.30;;;;;19.30;101789.00;;;;5025390;28;20230;-71
2023/08/21 06:13:08;;;;;;;4.30;2.20;;;;;19.30;101798.00;;;;5024599;28;20311;-70
2023/08/21 06:15:54;;;;;;;3.23;2.50;;;;;19.40;101800.00;;;;5040344;28;20233;-71
2023/08/21 06:18:41;;;;;;;5.43;2.27;;;;;19.40;101798.00;;;;5035226;28;20237;-71
2023/08/21 06:21:27;;;;;;;5.33;2.07;;;;;19.40;101795.00;;;;5036157;28;20234;-72
2023/08/21 06:24:15;;;;;;;7.63;2.57;;;;;19.40;101788.00;;;;5036048;28;20256;-71
2023/08/21 06:27:02;;;;;;;6.83;2.50;;;;;19.50;101785.00;;;;5045002;28;20275;-72
2023/08/21 06:29:52;;;;;;;7.27;2.60;;;;;19.50;101784.00;;;;5034418;28;20233;-72
2023/08/21 06:32:38;;;;;;;6.13;2.50;;;;;19.70;101771.00;;;;5016008;28;20238;-68
2023/08/21 06:35:25;;;;;;;4.50;2.50;;;;;19.80;101781.00;;;;5022953;28;20294;-69
2023/08/21 06:38:12;;;;;;;6.43;2.90;;;;;19.80;101778.00;;;;5024710;28;20330;-70
2023/08/21 06:40:59;;;;;;;6.83;2.63;;;;;20.00;101798.00;;;;5034014;28;20285;-68
2023/08/21 06:43:50;;;;;;;7.17;2.80;;;;;20.10;101786.00;;;;5035108;28;20300;-70
2023/08/21 06:46:37;;;;;;;4.07;2.73;;;;;20.20;101795.00;;;;5028514;28;20234;-69
2023/08/21 06:49:24;;;;;;;7.13;2.43;;;;;20.40;101800.00;;;;5025487;28;20239;-70
2023/08/21 06:52:10;;;;;;;5.87;2.40;;;;;20.50;101798.00;;;;5025335;28;20747;-70
2023/08/21 06:54:57;;;;;;;5.00;2.40;;;;;20.70;101798.00;;;;5031109;28;20289;-70
2023/08/21 06:57:44;;;;;;;4.00;2.00;;;;;20.80;101798.00;;;;5024890;28;20288;-70
2023/08/21 07:00:30;;;;;;;8.50;2.33;;;;;20.90;101800.00;;;;5020031;28;20236;-67
2023/08/21 07:03:17;;;;;;;5.67;2.40;;;;;21.00;101793.00;;;;5022046;28;20905;-70
2023/08/21 07:06:04;;;;;;;4.33;2.13;;;;;21.00;101798.00;;;;5032326;28;20376;-73
2023/08/21 07:08:50;;;;;;;5.53;2.00;;;;;21.10;101806.00;;;;5022363;28;20225;-67
2023/08/21 07:11:37;;;;;;;4.70;2.10;;;;;21.00;101805.00;;;;5018572;28;20236;-67
2023/08/21 07:14:25;;;;;;;4.00;2.20;;;;;21.20;101803.00;;;;5026892;28;20237;-69
2023/08/21 07:17:11;;;;;;;7.47;2.07;;;;;21.20;101808.00;;;;5024505;28;20315;-70
2023/08/21 07:19:57;;;;;;;4.20;2.00;;;;;21.40;101800.00;;;;5026784;28;20360;-68
2023/08/21 07:22:44;;;;;;;4.23;1.90;;;;;21.40;101799.00;;;;5030326;28;20241;-71
2023/08/21 07:25:30;;;;;;;5.30;2.03;;;;;21.50;101805.00;;;;5023753;28;20225;-71
2023/08/21 07:28:17;;;;;;;4.90;1.87;;;;;21.60;101810.00;;;;5016411;28;20253;-70
2023/08/21 07:31:04;;;;;;;4.73;2.10;;;;;21.70;101811.00;;;;5024750;28;20229;-71
2023/08/21 07:33:51;;;;;;;5.93;2.10;;;;;21.70;101809.00;;;;5034071;28;20235;-71
2023/08/21 07:36:37;;;;;;;5.43;2.20;;;;;21.80;101806.00;;;;5040334;28;20271;-70
2023/08/21 07:39:24;;;;;;;6.07;2.20;;;;;21.80;101799.00;;;;5033319;28;20253;-70
2023/08/21 07:42:12;;;;;;;4.20;2.00;;;;;21.90;101802.00;;;;5029030;28;20244;-69
2023/08/21 07:44:58;;;;;;;4.37;2.13;;;;;21.80;101810.00;;;;5038779;28;20272;-70
2023/08/21 07:47:46;;;;;;;4.17;2.00;;;;;21.90;101797.00;;;;5028331;28;20339;-70
2023/08/21 07:50:52;;;;;;;6.13;2.00;;;;;22.00;101809.00;;;;5029202;28;20252;-68
2023/08/21 07:53:39;;;;;;;4.07;1.80;;;;;22.10;101806.00;;;;5031921;28;20225;-71
2023/08/21 07:56:25;;;;;;;5.30;2.00;;;;;22.20;101806.00;;;;5035266;28;20352;-70
2023/08/21 07:59:12;;;;;;;6.77;1.80;;;;;22.30;101799.00;;;;5021831;28;20613;-71
2023/08/21 08:02:00;;;;;;;2.60;1.50;;;;;22.40;101803.00;;;;5024833;28;20275;-70
2023/08/21 08:04:48;;;;;;;3.63;1.80;;;;;22.60;101804.00;;;;5019839;28;20241;-70
2023/08/21 08:07:35;;;;;;;5.87;1.60;;;;;22.70;101806.00;;;;5021152;28;20273;-71
2023/08/21 08:10:20;;;;;;;5.07;1.63;;;;;22.80;101813.00;;;;5022014;28;20226;-70
2023/08/21 08:13:08;;;;;;;4.43;1.60;;;;;22.90;101798.00;;;;5024271;28;20253;-69
2023/08/21 08:15:54;;;;;;;3.27;1.70;;;;;23.00;101803.00;;;;5022741;28;20256;-70
2023/08/21 08:18:40;;;;;;;5.37;1.77;;;;;23.20;101820.00;;;;5017497;28;20237;-70
2023/08/21 08:21:28;;;;;;;3.80;1.20;;;;;23.40;101823.00;;;;5020841;28;20229;-70
2023/08/21 08:24:15;;;;;;;4.13;1.20;;;;;23.40;101817.00;;;;5030544;28;20229;-70
2023/08/21 08:27:01;;;;;;;3.40;1.40;;;;;23.50;101821.00;;;;5036464;28;20227;-70
2023/08/21 08:29:48;;;;;;;3.97;1.30;;;;;23.40;101820.00;;;;5036270;28;20781;-67
2023/08/21 08:32:34;;;;;;;2.57;1.20;;;;;23.50;101815.00;;;;5022184;28;20252;-70
2023/08/21 08:35:21;;;;;;;6.50;1.57;;;;;23.60;101802.00;;;;5015770;28;20907;-69
2023/08/21 08:38:08;;;;;;;4.73;1.50;;;;;23.70;101801.00;;;;5021078;28;20230;-70
2023/08/21 08:40:57;;;;;;;2.80;1.30;;;;;23.80;101804.00;;;;5022244;28;20226;-70
2023/08/21 08:43:47;;;;;;;3.07;1.20;;;;;23.90;101813.00;;;;5023063;28;20271;-70
2023/08/21 08:46:33;;;;;;;7.03;1.70;;;;;23.90;101822.00;;;;5027560;28;20381;-71
2023/08/21 08:49:20;;;;;;;4.30;1.47;;;;;23.70;101816.00;;;;5023035;28;20761;-71
2023/08/21 08:52:08;;;;;;;3.27;1.40;;;;;23.80;101809.00;;;;5025722;28;20722;-71
2023/08/21 08:54:58;;;;;;;5.10;1.33;;;;;23.90;101812.00;;;;5031889;28;20237;-70
2023/08/21 08:57:45;;;;;;;7.00;1.30;;;;;24.00;101805.00;;;;5026740;28;20279;-71
2023/08/21 09:00:31;;;;;;;5.73;1.50;;;;;24.10;101809.00;;;;5023800;28;20299;-71
2023/08/21 09:03:18;;;;;;;2.50;1.30;;;;;24.30;101810.00;;;;5026517;28;20238;-70
2023/08/21 09:06:05;;;;;;;3.87;1.40;;;;;24.40;101807.00;;;;5026799;28;20241;-70
2023/08/21 09:08:55;;;;;;;4.37;1.57;;;;;24.60;101817.00;;;;5017946;28;20287;-67
2023/08/21 09:11:45;;;;;;;3.40;1.33;;;;;24.60;101817.00;;;;5023041;28;20333;-68
2023/08/21 09:14:32;;;;;;;4.43;1.57;;;;;24.70;101821.00;;;;5029493;28;20244;-68
2023/08/21 09:17:18;;;;;;;3.30;1.50;;;;;24.90;101809.00;;;;5019965;28;20385;-69
2023/08/21 09:20:05;;;;;;;6.10;1.50;;;;;24.90;101808.00;;;;5021387;28;20773;-68
2023/08/21 09:22:56;;;;;;;1.97;1.27;;;;;25.00;101807.00;;;;5029679;28;20805;-68
2023/08/21 09:25:44;;;;;;;4.47;1.33;;;;;25.00;101803.00;;;;5037993;28;20265;-68
2023/08/21 09:28:32;;;;;;;6.23;1.73;;;;;24.80;101804.00;;;;5020370;28;20286;-68
2023/08/21 09:31:23;;;;;;;3.77;1.40;;;;;24.80;101806.00;;;;5034083;28;20359;-68
2023/08/21 09:34:10;;;;;;;3.73;1.40;;;;;25.10;101808.00;;;;5034331;28;20233;-68
2023/08/21 09:36:56;;;;;;;2.10;1.30;;;;;25.30;101810.00;;;;5025939;28;20253;-70
2023/08/21 09:39:44;;;;;;;3.33;1.37;;;;;25.50;101809.00;;;;5044137;28;20232;-68
2023/08/21 09:42:30;;;;;;;3.13;1.30;;;;;25.50;101809.00;;;;5024793;28;20288;-70
2023/08/21 09:45:22;;;;;;;2.80;1.30;;;;;25.60;101815.00;;;;5036722;28;20323;-69
2023/08/21 09:48:10;;;;;;;5.97;1.40;;;;;26.00;101814.00;;;;5033427;28;20241;-68
2023/08/21 09:50:57;;;;;;;8.02;1.73;;;;;26.10;101814.00;;;;5028020;28;20789;-70
2023/08/21 09:53:43;;;;;;;6.35;1.50;;;;;26.20;101823.00;;;;5017644;28;20233;-70
2023/08/21 09:56:29;;;;;;;6.13;1.60;;;;;26.40;101817.00;;;;5023969;28;20229;-70
2023/08/21 09:59:17;;;;;;;2.20;1.30;;;;;26.50;101808.00;;;;5026348;28;20868;-69
2023/08/21 10:02:07;;;;;;;4.63;1.45;;;;;26.40;101809.00;;;;5022661;28;20233;-70
2023/08/21 10:04:54;;;;;;;5.85;1.85;;;;;26.50;101810.00;;;;5021459;28;20257;-70
2023/08/21 10:07:43;;;;;;;3.58;1.40;;;;;26.50;101809.00;;;;5024595;28;20225;-71
2023/08/21 10:10:31;;;;;;;3.97;1.42;;;;;26.50;101805.00;;;;5023537;28;20258;-69
2023/08/21 10:13:18;;;;;;;5.57;1.40;;;;;26.60;101802.00;;;;5033959;28;20230;-70
2023/08/21 10:16:06;;;;;;;4.93;1.50;;;;;26.70;101804.00;;;;5027973;28;20240;-70
2023/08/21 10:18:55;;;;;;;4.22;1.67;;;;;26.90;101804.00;;;;5035556;28;20387;-70
2023/08/21 10:21:42;;;;;;;1.58;1.08;;;;;27.00;101801.00;;;;5026447;28;20629;-70
2023/08/21 10:24:29;;;;;;;3.00;1.38;;;;;26.90;101795.00;;;;5022382;28;20320;-69
2023/08/21 10:27:16;;;;;;;6.40;2.42;;;;;26.90;101798.00;;;;5026933;28;20240;-69
2023/08/21 10:30:13;;;;;;;3.42;2.10;;;;;26.80;101803.00;;;;5025553;28;20230;-68
2023/08/21 10:33:00;;;;;;;5.40;1.40;;;;;26.90;101801.00;;;;5025997;28;20233;-69
2023/08/21 10:35:48;;;;;;;5.15;1.50;;;;;26.90;101796.00;;;;5026513;28;20705;-69
2023/08/21 10:39:00;;;;;;;4.82;1.45;;;;;26.90;101800.00;;;;5024293;28;20313;-69
2023/08/21 10:41:54;;;;;;;3.67;1.50;;;;;27.00;101803.00;;;;5035320;28;20748;-69
2023/08/21 10:44:51;;;;;;;3.33;1.17;;;;;27.00;101802.00;;;;5033829;28;20258;-68
2023/08/21 10:47:38;;;;;;;2.75;1.40;;;;;27.10;101813.00;;;;5032025;28;20230;-68
2023/08/21 10:50:24;;;;;;;3.40;1.58;;;;;27.20;101810.00;;;;5019075;28;20638;-68
2023/08/21 10:53:14;;;;;;;3.90;1.38;;;;;27.30;101810.00;;;;5016978;28;20233;-69
2023/08/21 10:56:02;;;;;;;4.05;1.42;;;;;27.40;101809.00;;;;5021182;28;20233;-69
2023/08/21 10:58:51;;;;;;;4.05;1.50;;;;;27.50;101800.00;;;;5018736;28;20233;-69
2023/08/21 11:01:44;;;;;;;6.10;1.60;;;;;27.50;101805.00;;;;5020009;28;20230;-66
2023/08/21 11:04:40;;;;;;;4.47;1.30;;;;;27.50;101799.00;;;;5025762;28;20230;-69
2023/08/21 11:07:28;;;;;;;4.28;1.50;;;;;27.30;101807.00;;;;5023828;28;20245;-69
2023/08/21 11:10:17;;;;;;;3.45;1.60;;;;;27.10;101803.00;;;;5021338;28;20254;-69
2023/08/21 11:13:07;;;;;;;3.00;1.70;;;;;27.20;101805.00;;;;5026780;28;20293;-69
2023/08/21 11:16:01;;;;;;;5.20;1.70;;;;;27.40;101800.00;;;;5023847;28;21015;-69
2023/08/21 11:18:47;;;;;;;4.28;1.40;;;;;27.60;101804.00;;;;5037394;28;20233;-68
2023/08/21 11:21:33;;;;;;;5.72;1.50;;;;;27.70;101805.00;;;;5016457;28;20603;-69
2023/08/21 11:24:19;;;;;;;4.53;1.38;;;;;27.60;101806.00;;;;5024731;28;20247;-69
2023/08/21 11:27:09;;;;;;;3.22;1.42;;;;;27.50;101811.00;;;;5032866;28;20237;-67
2023/08/21 11:29:55;;;;;;;3.63;1.40;;;;;27.70;101809.00;;;;5032320;28;20230;-69
2023/08/21 11:32:42;;;;;;;4.68;1.67;;;;;27.80;101807.00;;;;5023260;28;20224;-69
2023/08/21 11:35:29;;;;;;;3.13;1.55;;;;;28.00;101814.00;;;;5025387;28;20730;-69
2023/08/21 11:38:18;;;;;;;4.10;1.58;;;;;27.90;101809.00;;;;5021637;28;20232;-71
2023/08/21 11:41:07;;;;;;;2.72;1.30;;;;;27.80;101807.00;;;;5015980;28;20303;-70
2023/08/21 11:44:02;;;;;;;3.88;1.40;;;;;27.80;101825.00;;;;5015782;28;20221;-69
2023/08/21 11:46:51;;;;;;;2.97;1.45;;;;;27.60;101823.00;;;;5020766;28;20237;-70
2023/08/21 11:49:41;;;;;;;4.97;1.33;;;;;27.70;101818.00;;;;5021511;28;20232;-71
2023/08/21 11:52:27;;;;;;;4.80;1.50;;;;;27.90;101818.00;;;;5017545;28;20887;-70
2023/08/21 11:55:13;;;;;;;2.20;1.60;;;;;28.10;101823.00;;;;5020176;28;20237;-70
2023/08/21 11:58:04;;;;;;;3.78;1.50;;;;;28.20;101819.00;;;;5020257;28;20233;-70
2023/08/21 12:00:53;;;;;;;3.45;1.50;;;;;28.00;101816.00;;;;5022221;28;20224;-70
2023/08/21 12:03:40;;;;;;;2.33;1.33;;;;;28.30;101814.00;;;;5017696;28;20701;-70
2023/08/21 12:06:28;;;;;;;1.95;1.20;;;;;28.70;101812.00;;;;5028619;28;20248;-70
2023/08/21 12:09:15;;;;;;;2.30;1.50;;;;;29.10;101798.00;;;;5015808;28;20237;-70
2023/08/21 12:12:01;;;;;;;3.97;1.40;;;;;29.00;101807.00;;;;5025380;28;20225;-70
2023/08/21 12:14:47;;;;;;;3.65;1.60;;;;;28.80;101805.00;;;;5029920;28;20295;-69
2023/08/21 12:17:36;;;;;;;3.97;1.60;;;;;28.60;101806.00;;;;5034265;28;20305;-70
2023/08/21 12:20:23;;;;;;;6.93;1.50;;;;;28.20;101801.00;;;;5027226;28;20237;-69
2023/08/21 12:23:09;;;;;;;3.42;1.63;;;;;28.00;101800.00;;;;5024290;28;20238;-70
2023/08/21 12:25:56;;;;;;;3.10;1.70;;;;;27.80;101801.00;;;;5011081;28;20221;-70
2023/08/21 12:28:42;;;;;;;2.92;1.63;;;;;27.50;101798.00;;;;5022550;28;20234;-70
2023/08/21 12:31:30;;;;;;;5.57;1.80;;;;;27.20;101796.00;;;;5022348;28;20233;-70
2023/08/21 12:34:18;;;;;;;4.38;1.67;;;;;27.10;101789.00;;;;5016318;28;20261;-70
2023/08/21 12:37:05;;;;;;;3.00;1.70;;;;;27.40;101795.00;;;;5011413;28;20297;-71
2023/08/21 12:39:52;;;;;;;5.15;2.05;;;;;27.80;101793.00;;;;5014849;28;20636;-68
2023/08/21 12:42:38;;;;;;;7.18;2.00;;;;;28.10;101790.00;;;;5021174;28;20221;-71
2023/08/21 12:45:25;;;;;;;2.42;1.60;;;;;28.40;101794.00;;;;5028116;28;20248;-68
2023/08/21 12:48:11;;;;;;;6.93;1.95;;;;;28.30;101791.00;;;;5024248;28;20241;-68
2023/08/21 12:50:59;;;;;;;7.47;1.70;;;;;28.10;101788.00;;;;5017627;28;20245;-68
2023/08/21 12:53:46;;;;;;;3.58;1.60;;;;;28.20;101779.00;;;;5039733;28;20233;-69
2023/08/21 12:56:32;;;;;;;3.13;1.60;;;;;28.50;101791.00;;;;5029413;28;20740;-68
2023/08/21 12:59:19;;;;;;;6.22;1.60;;;;;28.60;101789.00;;;;5015699;28;20236;-69
2023/08/21 13:02:06;;;;;;;5.15;1.75;;;;;28.60;101788.00;;;;5028235;28;20236;-68
2023/08/21 13:04:52;;;;;;;5.15;1.65;;;;;28.30;101782.00;;;;5029500;28;20311;-66
2023/08/21 13:07:40;;;;;;;3.03;1.60;;;;;28.30;101783.00;;;;5026434;28;20237;-70
2023/08/21 13:10:26;;;;;;;7.13;1.60;;;;;28.70;101791.00;;;;5021612;28;20236;-69
2023/08/21 13:13:12;;;;;;;3.90;1.58;;;;;28.90;101787.00;;;;5023778;28;20319;-70
2023/08/21 13:16:00;;;;;;;6.70;1.77;;;;;29.30;101803.00;;;;5024136;28;20272;-70
2023/08/21 13:18:46;;;;;;;3.78;1.70;;;;;29.60;101792.00;;;;5020640;28;20233;-71
2023/08/21 13:21:32;;;;;;;4.05;1.42;;;;;29.70;101788.00;;;;5044304;28;20275;-70
2023/08/21 13:24:21;;;;;;;2.88;1.60;;;;;29.50;101794.00;;;;5034706;28;20287;-71
2023/08/21 13:27:07;;;;;;;6.20;1.80;;;;;29.10;101792.00;;;;5018547;28;20376;-71
2023/08/21 13:29:53;;;;;;;4.88;2.00;;;;;28.80;101798.00;;;;5017293;28;20333;-71
2023/08/21 13:32:40;;;;;;;3.70;1.67;;;;;28.50;101789.00;;;;5019997;28;20221;-70
2023/08/21 13:35:26;;;;;;;3.10;1.50;;;;;28.60;101787.00;;;;5024297;28;20725;-71
2023/08/21 13:38:13;;;;;;;3.38;1.80;;;;;29.10;101777.00;;;;5016307;28;20851;-73
2023/08/21 13:41:00;;;;;;;3.90;1.52;;;;;29.60;101785.00;;;;5013940;28;20221;-73
2023/08/21 13:43:47;;;;;;;3.65;1.50;;;;;30.00;101781.00;;;;5023185;28;20374;-71
2023/08/21 13:46:36;;;;;;;3.70;1.70;;;;;30.20;101772.00;;;;5012655;28;20834;-71